Time;durP1;ratioP1;P1;durP2;ratioP2;P2;SDS_P1;SDS_P2;PMS_P1;PMS_P2;Temp;Humidity;BMP_temperature;BMP_pressure;BME280_temperature;BME280_humidity;BME280_pressure;Samples;Min_cycle;Max_cycle;Signal;HPM_P1;HPM_P2
2023/02/05 00:02:16;;;;;;;8.2;5.7;;;;;;;;;;;;;
2023/02/05 00:04:44;;;;;;;7.6;5.6;;;;;;;;;;;;;
2023/02/05 00:07:09;;;;;;;7.6;5.1;;;;;;;;;;;;;
2023/02/05 00:09:41;;;;;;;7.5;5.7;;;;;;;;;;;;;
2023/02/05 00:12:07;;;;;;;7;6;;;;;;;;;;;;;
2023/02/05 00:14:32;;;;;;;6;5.4;;;;;;;;;;;;;
2023/02/05 00:16:57;;;;;;;7.2;5.5;;;;;;;;;;;;;
2023/02/05 00:19:23;;;;;;;6.4;5.5;;;;;;;;;;;;;
2023/02/05 00:21:51;;;;;;;6.7;5.3;;;;;;;;;;;;;
2023/02/05 00:24:16;;;;;;;6.8;5.9;;;;;;;;;;;;;
2023/02/05 00:26:50;;;;;;;6.7;5.3;;;;;;;;;;;;;
2023/02/05 00:29:15;;;;;;;6.4;5.4;;;;;;;;;;;;;
2023/02/05 00:31:40;;;;;;;6.3;5.7;;;;;;;;;;;;;
2023/02/05 00:34:11;;;;;;;7.4;5.7;;;;;;;;;;;;;
2023/02/05 00:36:38;;;;;;;6.9;5.6;;;;;;;;;;;;;
2023/02/05 00:39:04;;;;;;;7.2;5.4;;;;;;;;;;;;;
2023/02/05 00:41:29;;;;;;;7.9;5.9;;;;;;;;;;;;;
2023/02/05 00:43:54;;;;;;;6.2;5.4;;;;;;;;;;;;;
2023/02/05 00:46:19;;;;;;;6.4;5.2;;;;;;;;;;;;;
2023/02/05 00:48:44;;;;;;;6.6;5.8;;;;;;;;;;;;;
2023/02/05 00:51:10;;;;;;;7.4;5.7;;;;;;;;;;;;;
2023/02/05 00:53:35;;;;;;;6.7;5.7;;;;;;;;;;;;;
2023/02/05 00:56:00;;;;;;;7.1;6.1;;;;;;;;;;;;;
2023/02/05 00:58:25;;;;;;;7.9;5.8;;;;;;;;;;;;;
2023/02/05 01:00:50;;;;;;;8.2;6.5;;;;;;;;;;;;;
2023/02/05 01:03:15;;;;;;;7.9;6.3;;;;;;;;;;;;;
2023/02/05 01:05:41;;;;;;;8.1;6.2;;;;;;;;;;;;;
2023/02/05 01:08:07;;;;;;;8.3;6.4;;;;;;;;;;;;;
2023/02/05 01:10:32;;;;;;;8.9;7;;;;;;;;;;;;;
2023/02/05 01:12:57;;;;;;;8.5;6;;;;;;;;;;;;;
2023/02/05 01:15:24;;;;;;;9.2;6.6;;;;;;;;;;;;;
2023/02/05 01:17:49;;;;;;;8.3;6.3;;;;;;;;;;;;;
2023/02/05 01:20:14;;;;;;;6.8;5.6;;;;;;;;;;;;;
2023/02/05 01:22:39;;;;;;;7.2;4.9;;;;;;;;;;;;;
2023/02/05 01:25:04;;;;;;;6.5;5.1;;;;;;;;;;;;;
2023/02/05 01:27:30;;;;;;;7.8;5.5;;;;;;;;;;;;;
2023/02/05 01:29:55;;;;;;;6.9;5.3;;;;;;;;;;;;;
2023/02/05 01:32:20;;;;;;;6.5;5.3;;;;;;;;;;;;;
2023/02/05 01:34:45;;;;;;;7;5.4;;;;;;;;;;;;;
2023/02/05 01:37:10;;;;;;;7.4;5.5;;;;;;;;;;;;;
2023/02/05 01:39:38;;;;;;;8.8;5.9;;;;;;;;;;;;;
2023/02/05 01:42:03;;;;;;;7.4;5.3;;;;;;;;;;;;;
2023/02/05 01:44:31;;;;;;;7.2;5.8;;;;;;;;;;;;;
2023/02/05 01:46:56;;;;;;;7.4;5.8;;;;;;;;;;;;;
2023/02/05 01:49:21;;;;;;;7.2;6.5;;;;;;;;;;;;;
2023/02/05 01:51:48;;;;;;;9.4;6.9;;;;;;;;;;;;;
2023/02/05 01:54:13;;;;;;;10.1;7.3;;;;;;;;;;;;;
2023/02/05 01:56:39;;;;;;;10.9;8;;;;;;;;;;;;;
2023/02/05 01:59:04;;;;;;;12.5;7.3;;;;;;;;;;;;;
2023/02/05 02:01:31;;;;;;;7.4;6.1;;;;;;;;;;;;;
2023/02/05 02:03:56;;;;;;;9.3;7;;;;;;;;;;;;;
2023/02/05 02:06:21;;;;;;;8.5;6.3;;;;;;;;;;;;;
2023/02/05 02:08:46;;;;;;;7.4;6.3;;;;;;;;;;;;;
2023/02/05 02:11:12;;;;;;;9.4;6.6;;;;;;;;;;;;;
2023/02/05 02:13:37;;;;;;;7.5;6.2;;;;;;;;;;;;;
2023/02/05 02:16:05;;;;;;;9;6.4;;;;;;;;;;;;;
2023/02/05 02:18:30;;;;;;;8;6.5;;;;;;;;;;;;;
2023/02/05 02:20:56;;;;;;;7.9;6.4;;;;;;;;;;;;;
2023/02/05 02:23:21;;;;;;;9.1;6.1;;;;;;;;;;;;;
2023/02/05 02:25:46;;;;;;;7.5;6.2;;;;;;;;;;;;;
2023/02/05 02:28:12;;;;;;;9.1;5.8;;;;;;;;;;;;;
2023/02/05 02:30:39;;;;;;;8;6.2;;;;;;;;;;;;;
2023/02/05 02:33:04;;;;;;;7.7;6.3;;;;;;;;;;;;;
2023/02/05 02:35:31;;;;;;;8.3;6.1;;;;;;;;;;;;;
2023/02/05 02:37:56;;;;;;;9.8;7.1;;;;;;;;;;;;;
2023/02/05 02:40:22;;;;;;;35;18.5;;;;;;;;;;;;;
2023/02/05 02:42:47;;;;;;;45.1;24.7;;;;;;;;;;;;;
2023/02/05 02:45:15;;;;;;;15.4;9.2;;;;;;;;;;;;;
2023/02/05 02:47:40;;;;;;;16;10.5;;;;;;;;;;;;;
2023/02/05 02:50:10;;;;;;;10.4;7.9;;;;;;;;;;;;;
2023/02/05 02:52:35;;;;;;;9;7.1;;;;;;;;;;;;;
2023/02/05 02:55:04;;;;;;;10.8;7.3;;;;;;;;;;;;;
2023/02/05 02:57:26;;;;;;;8.8;7.4;;;;;;;;;;;;;
2023/02/05 02:59:53;;;;;;;10;7.4;;;;;;;;;;;;;
2023/02/05 03:02:18;;;;;;;8.6;7.4;;;;;;;;;;;;;
2023/02/05 03:04:43;;;;;;;10.3;7.5;;;;;;;;;;;;;
2023/02/05 03:07:08;;;;;;;11;7.1;;;;;;;;;;;;;
2023/02/05 03:09:34;;;;;;;9.9;7.7;;;;;;;;;;;;;
2023/02/05 03:12:00;;;;;;;9;7.2;;;;;;;;;;;;;
2023/02/05 03:14:25;;;;;;;9.1;6.9;;;;;;;;;;;;;
2023/02/05 03:16:53;;;;;;;10.9;7.4;;;;;;;;;;;;;
2023/02/05 03:19:18;;;;;;;9;6.7;;;;;;;;;;;;;
2023/02/05 03:21:44;;;;;;;9;7;;;;;;;;;;;;;
2023/02/05 03:24:09;;;;;;;8.4;6.6;;;;;;;;;;;;;
2023/02/05 03:26:37;;;;;;;7.9;6.3;;;;;;;;;;;;;
2023/02/05 03:29:00;;;;;;;8.7;6.6;;;;;;;;;;;;;
2023/02/05 03:31:27;;;;;;;8.5;6.6;;;;;;;;;;;;;
2023/02/05 03:33:52;;;;;;;8.1;6.4;;;;;;;;;;;;;
2023/02/05 03:36:17;;;;;;;8.7;6.8;;;;;;;;;;;;;
2023/02/05 03:38:42;;;;;;;9.8;6.7;;;;;;;;;;;;;
2023/02/05 03:41:08;;;;;;;8.5;6.3;;;;;;;;;;;;;
2023/02/05 03:43:34;;;;;;;7.8;6.3;;;;;;;;;;;;;
2023/02/05 03:45:59;;;;;;;8.3;6.2;;;;;;;;;;;;;
2023/02/05 03:48:24;;;;;;;7.8;6.7;;;;;;;;;;;;;
2023/02/05 03:50:49;;;;;;;9;6.9;;;;;;;;;;;;;
2023/02/05 03:53:15;;;;;;;8.4;6.8;;;;;;;;;;;;;
2023/02/05 03:55:40;;;;;;;9.1;7.1;;;;;;;;;;;;;
2023/02/05 03:58:05;;;;;;;8.3;6.6;;;;;;;;;;;;;
2023/02/05 04:02:35;;;;;;;9.2;6.3;;;;;;;2.07;88.80371;953.5542;;;;
2023/02/05 04:05:01;;;;;;;8.5;6.2;;;;;;;2.07;88.74707;953.613;;;;
2023/02/05 04:07:48;;;;;;;9.3;6.3;;;;;;;2.05;88.87793;953.6016;;;;
2023/02/05 04:10:20;;;;;;;10.5;7.6;;;;;;;2.06;88.83496;953.5903;;;;
2023/02/05 04:16:05;;;;;;;7.9;6.8;;;;;;;1.96;89.44141;953.6434;;;;
2023/02/05 04:18:33;;;;;;;10.4;7.2;;;;;;;1.99;89.54785;953.7058;;;;
2023/02/05 04:20:58;;;;;;;10.1;7.7;;;;;;;2.05;89.54785;953.6884;;;;
2023/02/05 04:23:27;;;;;;;9.3;7.1;;;;;;;2.08;89.54199;953.7391;;;;
2023/02/05 04:25:55;;;;;;;12.5;8.8;;;;;;;2.1;89.21191;953.6998;;;;
2023/02/05 04:28:20;;;;;;;9.5;6.9;;;;;;;2.06;89.39258;953.6953;;;;
2023/02/05 04:33:32;;;;;;;11.3;8.4;;;;;;;2.1;88.99902;953.6833;;;;
2023/02/05 04:36:01;;;;;;;10.3;8.6;;;;;;;2.16;88.84473;953.5829;;;;
2023/02/05 04:38:31;;;;;;;14.7;10.5;;;;;;;1.91;89.08105;953.6874;;;;
2023/02/05 04:40:56;;;;;;;12.1;9.1;;;;;;;1.7;90.18945;953.7099;;;;
2023/02/05 04:43:25;;;;;;;10.4;7.7;;;;;;;1.64;90.5127;953.6898;;;;
2023/02/05 04:45:58;;;;;;;10.4;8.3;;;;;;;1.72;90.28418;953.6042;;;;
2023/02/05 04:48:25;;;;;;;9.6;7.8;;;;;;;1.57;90.11719;953.6791;;;;
2023/02/05 04:50:50;;;;;;;9.3;7.1;;;;;;;1.51;90.42969;953.6573;;;;
2023/02/05 04:56:15;;;;;;;10.8;7.8;;;;;;;1.43;90.02148;953.5614;;;;
2023/02/05 04:59:03;;;;;;;11;8.2;;;;;;;1.46;90.11816;953.5761;;;;
2023/02/05 05:01:33;;;;;;;11.3;7.6;;;;;;;1.33;90.27734;953.5751;;;;
2023/02/05 05:03:58;;;;;;;10.4;7.8;;;;;;;1.33;90.80469;953.5667;;;;
2023/02/05 05:08:50;;;;;;;13;8.4;;;;;;;1.69;89.60742;953.4794;;;;
2023/02/05 05:11:15;;;;;;;11.9;8.9;;;;;;;1.63;89.44824;953.4238;;;;
2023/02/05 05:13:45;;;;;;;11;8.2;;;;;;;1.59;89.94434;953.5125;;;;
2023/02/05 05:16:11;;;;;;;11.8;8.7;;;;;;;1.69;89.27148;953.5039;;;;
2023/02/05 05:18:37;;;;;;;11.6;8.9;;;;;;;1.52;89.21387;953.5042;;;;
2023/02/05 05:21:02;;;;;;;11.8;8.5;;;;;;;1.7;89.35059;953.4501;;;;
2023/02/05 05:23:30;;;;;;;11.7;8.8;;;;;;;1.89;88.47656;953.4329;;;;
2023/02/05 05:25:58;;;;;;;13.1;9.2;;;;;;;1.95;87.99316;953.4429;;;;
2023/02/05 05:28:23;;;;;;;12.5;9.3;;;;;;;2.05;87.66895;953.3917;;;;
2023/02/05 05:30:51;;;;;;;13.2;9.3;;;;;;;2.11;87.72656;953.3683;;;;
2023/02/05 05:33:16;;;;;;;11.2;8.9;;;;;;;2.16;87.23047;953.361;;;;
2023/02/05 05:35:47;;;;;;;13.2;8.5;;;;;;;2.19;87.25879;953.4264;;;;
2023/02/05 05:38:16;;;;;;;11.3;7.7;;;;;;;2.26;86.70215;953.4628;;;;
2023/02/05 05:45:36;;;;;;;12.2;8.7;;;;;;;2.13;86.6875;953.4347;;;;
2023/02/05 05:48:07;;;;;;;13.2;8.4;;;;;;;2.1;86.51367;953.3533;;;;
2023/02/05 05:50:31;;;;;;;10.2;7.9;;;;;;;2.13;86.11816;953.442;;;;
2023/02/05 05:52:59;;;;;;;11;7.6;;;;;;;1.6;86.65723;953.4708;;;;
2023/02/05 05:55:24;;;;;;;10.6;7.5;;;;;;;1.75;87.45996;953.4332;;;;
2023/02/05 05:57:52;;;;;;;12.2;7.4;;;;;;;1.58;87.38184;953.41;;;;
2023/02/05 06:00:18;;;;;;;8.6;6.9;;;;;;;1.48;87.96484;953.3766;;;;
2023/02/05 06:02:45;;;;;;;8.7;6.8;;;;;;;1.75;87.47168;953.4128;;;;
2023/02/05 06:07:38;;;;;;;10;7.6;;;;;;;1.99;86.33496;953.5392;;;;
2023/02/05 06:10:03;;;;;;;12.8;6.7;;;;;;;1.96;86.0498;953.5586;;;;
2023/02/05 06:12:30;;;;;;;10.3;6.4;;;;;;;2.04;85.74219;953.4266;;;;
2023/02/05 06:14:55;;;;;;;8.4;6.2;;;;;;;2.05;85.60938;953.4253;;;;
2023/02/05 06:17:24;;;;;;;7.8;6.1;;;;;;;1.95;85.72168;953.4124;;;;
2023/02/05 06:19:49;;;;;;;10;6.6;;;;;;;2;85.84473;953.4475;;;;
2023/02/05 06:22:16;;;;;;;10.2;6.8;;;;;;;1.99;86.08887;953.3472;;;;
2023/02/05 06:24:41;;;;;;;11.5;7.9;;;;;;;2.04;86.01074;953.4115;;;;
2023/02/05 06:27:09;;;;;;;10.3;6.7;;;;;;;2.02;85.74902;953.4158;;;;
2023/02/05 06:29:34;;;;;;;9.9;8.9;;;;;;;2.03;85.76074;953.457;;;;
2023/02/05 06:31:59;;;;;;;10.5;8.9;;;;;;;2.05;85.81055;953.4279;;;;
2023/02/05 06:34:25;;;;;;;12.7;7.8;;;;;;;2.12;85.40039;953.4183;;;;
2023/02/05 06:36:51;;;;;;;12.2;8;;;;;;;1.71;85.58496;953.4723;;;;
2023/02/05 06:39:18;;;;;;;10.3;6.4;;;;;;;1.82;85.49512;953.5513;;;;
2023/02/05 06:41:43;;;;;;;12;7.2;;;;;;;1.89;85.24121;953.5503;;;;
2023/02/05 06:44:10;;;;;;;9.5;6.9;;;;;;;1.98;85.52539;953.5862;;;;
2023/02/05 06:46:35;;;;;;;9.4;6.6;;;;;;;1.98;85.83008;953.6312;;;;
2023/02/05 06:49:03;;;;;;;8.9;6.6;;;;;;;1.99;85.92285;953.7601;;;;
2023/02/05 06:51:28;;;;;;;10.1;6.9;;;;;;;1.89;86.22754;953.7737;;;;
2023/02/05 06:53:56;;;;;;;9.5;6.1;;;;;;;1.94;85.91211;953.7772;;;;
2023/02/05 06:56:20;;;;;;;9.4;6.3;;;;;;;1.77;85.9541;953.6394;;;;
2023/02/05 06:58:47;;;;;;;8;5.7;;;;;;;1.61;85.91309;953.8285;;;;
2023/02/05 07:01:12;;;;;;;7.2;5.3;;;;;;;1.42;87.07813;953.8627;;;;
2023/02/05 07:03:41;;;;;;;7;5.2;;;;;;;1.2;87.99609;953.8524;;;;
2023/02/05 07:06:06;;;;;;;6.6;4.9;;;;;;;1.02;89.18457;953.8777;;;;
2023/02/05 07:08:35;;;;;;;8.3;5.2;;;;;;;1.1;89.53711;953.9128;;;;
2023/02/05 07:11:00;;;;;;;8.8;5.3;;;;;;;1.26;88.92383;953.8478;;;;
2023/02/05 07:13:28;;;;;;;8.5;5.4;;;;;;;1.21;89.34961;953.8766;;;;
2023/02/05 07:15:53;;;;;;;7.8;5.5;;;;;;;1.44;88.84961;953.9103;;;;
2023/02/05 07:18:25;;;;;;;8.6;6.7;;;;;;;1.36;89.21289;953.9182;;;;
2023/02/05 07:20:57;;;;;;;8.8;6.2;;;;;;;1.71;88.38086;953.9041;;;;
2023/02/05 07:23:24;;;;;;;8.1;5.8;;;;;;;1.83;87.47656;953.8922;;;;
2023/02/05 07:25:49;;;;;;;8.7;5.4;;;;;;;1.95;86.78516;953.9456;;;;
2023/02/05 07:28:19;;;;;;;9.2;5.9;;;;;;;2.37;87.18555;953.9448;;;;
2023/02/05 07:30:50;;;;;;;10.5;6.7;;;;;;;2.69;84.34863;953.9034;;;;
2023/02/05 07:33:20;;;;;;;13.2;8.2;;;;;;;2.54;82.54785;954.0201;;;;
2023/02/05 07:35:45;;;;;;;12;8.4;;;;;;;2.85;82.99023;954.0673;;;;
2023/02/05 07:38:13;;;;;;;11.3;6.5;;;;;;;2.95;82.07715;954.087;;;;
2023/02/05 07:40:38;;;;;;;7.2;4.7;;;;;;;3.3;80.27051;953.9852;;;;
2023/02/05 07:43:58;;;;;;;6.1;4.6;;;;;;;3.24;79.64063;954.022;;;;
2023/02/05 07:46:23;;;;;;;8.4;4.9;;;;;;;3.56;78.08203;953.9592;;;;
2023/02/05 07:48:49;;;;;;;6.1;5.1;;;;;;;3.29;79.69727;953.9011;;;;
2023/02/05 07:51:14;;;;;;;10.5;7.5;;;;;;;3.32;79.68945;953.9311;;;;
2023/02/05 07:53:42;;;;;;;8.4;5.9;;;;;;;2.87;81.27637;953.8702;;;;
2023/02/05 07:56:07;;;;;;;6.6;5;;;;;;;3.01;80.73145;953.8054;;;;
2023/02/05 07:58:36;;;;;;;9.5;5.4;;;;;;;2.91;80.79102;953.8937;;;;
2023/02/05 08:01:01;;;;;;;7.5;5.2;;;;;;;4.41;76.21387;953.777;;;;
2023/02/05 08:03:27;;;;;;;7.6;4.5;;;;;;;5.32;72.55273;953.7155;;;;
2023/02/05 08:05:55;;;;;;;6.9;4.8;;;;;;;5.78;69.15332;953.6717;;;;
2023/02/05 08:08:21;;;;;;;7.3;4.3;;;;;;;6.53;67.87109;953.7541;;;;
2023/02/05 08:10:50;;;;;;;7.8;4.8;;;;;;;6.2;65.13965;953.6917;;;;
2023/02/05 08:13:15;;;;;;;7.9;4.1;;;;;;;5.89;67.75977;953.73;;;;
2023/02/05 08:20:54;;;;;;;7.4;5.3;;;;;;;7.72;60.71973;953.6983;;;;
2023/02/05 08:23:23;;;;;;;6.7;5.2;;;;;;;7.8;58.27051;953.6917;;;;
2023/02/05 08:25:48;;;;;;;7.3;4.5;;;;;;;6.05;63.16211;953.6878;;;;
2023/02/05 08:28:17;;;;;;;8.4;5.2;;;;;;;6.92;63.1875;953.7172;;;;
2023/02/05 08:30:43;;;;;;;7;4.5;;;;;;;8.37;57.34668;953.59;;;;
2023/02/05 08:33:13;;;;;;;5;4;;;;;;;9.55;55.19043;953.6548;;;;
2023/02/05 08:35:44;;;;;;;5.4;4;;;;;;;7.11;59.87402;953.7486;;;;
2023/02/05 08:38:15;;;;;;;4.6;3.6;;;;;;;7.17;61.45898;953.7263;;;;
2023/02/05 08:40:41;;;;;;;6.1;3.6;;;;;;;8.49;54.83984;953.5753;;;;
2023/02/05 08:43:11;;;;;;;5.1;3.5;;;;;;;9.85;53.30371;953.673;;;;
2023/02/05 08:45:42;;;;;;;4.2;2.7;;;;;;;12.13;47.71777;953.6824;;;;
2023/02/05 08:48:10;;;;;;;3.9;2.2;;;;;;;13.6;43.34863;953.5164;;;;
2023/02/05 08:50:35;;;;;;;3.9;2;;;;;;;14.24;40.90234;953.4998;;;;
2023/02/05 08:53:03;;;;;;;4.1;3;;;;;;;12.77;42.33691;953.5383;;;;
2023/02/05 08:55:28;;;;;;;4.3;3;;;;;;;13.34;42.46094;953.551;;;;
2023/02/05 08:57:54;;;;;;;3.8;3.3;;;;;;;7.98;53.87988;953.6691;;;;
2023/02/05 09:00:19;;;;;;;4.4;3.5;;;;;;;6.28;60.29102;953.6072;;;;
2023/02/05 09:02:48;;;;;;;7.3;3.6;;;;;;;7.3;58.61035;953.5664;;;;
2023/02/05 09:05:13;;;;;;;5.9;3.9;;;;;;;5.55;63.77637;953.524;;;;
2023/02/05 09:07:44;;;;;;;5.2;3.1;;;;;;;7.24;60.17773;953.4194;;;;
2023/02/05 09:10:17;;;;;;;5.6;2.5;;;;;;;6.47;58.35059;953.395;;;;
2023/02/05 09:12:44;;;;;;;4.4;2.5;;;;;;;4.66;64.54395;953.4453;;;;
2023/02/05 09:15:09;;;;;;;8.1;6.9;;;;;;;4;67.5498;953.4105;;;;
2023/02/05 09:17:37;;;;;;;4.8;3.3;;;;;;;3.59;70.78711;953.3518;;;;
2023/02/05 09:20:02;;;;;;;4.8;3.1;;;;;;;3.39;72.15723;953.3506;;;;
2023/02/05 09:22:29;;;;;;;4.4;2.3;;;;;;;3.76;70.05078;953.2855;;;;
2023/02/05 09:24:54;;;;;;;8.4;2.9;;;;;;;3.46;70.13672;953.2386;;;;
2023/02/05 09:27:20;;;;;;;4.2;2.4;;;;;;;3.61;71.09277;953.2522;;;;
2023/02/05 09:29:45;;;;;;;5.1;2.5;;;;;;;3.35;68.86133;953.2326;;;;
2023/02/05 09:32:12;;;;;;;7.7;3.3;;;;;;;3.28;70.8252;953.1848;;;;
2023/02/05 09:34:37;;;;;;;6.8;2.5;;;;;;;3.07;69.88086;953.1887;;;;
2023/02/05 09:37:05;;;;;;;5.4;2.3;;;;;;;2.79;70.84375;953.1624;;;;
2023/02/05 09:39:30;;;;;;;4.1;2.1;;;;;;;2.99;70.07031;953.1303;;;;
2023/02/05 09:41:57;;;;;;;2.8;2.3;;;;;;;3.12;70.06934;953.0836;;;;
2023/02/05 09:44:24;;;;;;;4.9;2.5;;;;;;;3.08;70.18457;953.0305;;;;
2023/02/05 09:46:51;;;;;;;4.8;2.2;;;;;;;3.2;68.81445;952.9614;;;;
2023/02/05 09:49:16;;;;;;;4.1;2.3;;;;;;;3.26;67.84668;952.9204;;;;
2023/02/05 09:51:41;;;;;;;3.2;1.7;;;;;;;3.86;69.76367;952.8505;;;;
2023/02/05 09:54:06;;;;;;;7.1;2.1;;;;;;;4.07;66.98438;952.9006;;;;
2023/02/05 09:56:31;;;;;;;4.3;2.3;;;;;;;4.35;66.09473;952.8727;;;;
2023/02/05 09:58:56;;;;;;;4.1;1.9;;;;;;;4.81;64.89258;952.8303;;;;
2023/02/05 10:01:25;;;;;;;4.6;1.8;;;;;;;5.33;63.5752;952.7751;;;;
2023/02/05 10:03:52;;;;;;;5.4;2.2;;;;;;;5.73;61.74707;952.6903;;;;
2023/02/05 10:06:15;;;;;;;3.6;1.8;;;;;;;6.01;60.21875;952.7182;;;;
2023/02/05 10:08:40;;;;;;;3.9;1.8;;;;;;;6.48;58.11328;952.7631;;;;
2023/02/05 10:11:05;;;;;;;6.4;2.3;;;;;;;6.99;58.10352;952.673;;;;
2023/02/05 10:13:34;;;;;;;4.1;1.9;;;;;;;7.93;54.66699;952.525;;;;
2023/02/05 10:16:00;;;;;;;1.8;1.5;;;;;;;8.48;52.24902;952.4558;;;;
2023/02/05 10:18:25;;;;;;;4.4;2.2;;;;;;;8.48;52.32715;952.3762;;;;
2023/02/05 10:20:50;;;;;;;7.9;2.9;;;;;;;7.04;54.99512;952.3901;;;;
2023/02/05 10:23:15;;;;;;;5.6;1.9;;;;;;;6.04;57.72559;952.363;;;;
2023/02/05 10:25:43;;;;;;;3.9;2.3;;;;;;;5.86;58.62891;952.3008;;;;
2023/02/05 10:28:07;;;;;;;8.5;2.4;;;;;;;6.36;56.33301;952.2325;;;;
2023/02/05 10:30:31;;;;;;;4.9;2.2;;;;;;;6.03;58.0293;952.1774;;;;
2023/02/05 10:32:57;;;;;;;5.1;2.5;;;;;;;6.52;57.46289;952.1392;;;;
2023/02/05 10:35:25;;;;;;;5.3;2.2;;;;;;;7.03;55.05078;952.0776;;;;
2023/02/05 10:37:49;;;;;;;7.1;2.4;;;;;;;6.9;55.55566;951.9839;;;;
2023/02/05 10:40:15;;;;;;;5.4;2.4;;;;;;;6.67;56.97461;951.9716;;;;
2023/02/05 10:42:40;;;;;;;5.2;2.3;;;;;;;7.31;56.93359;951.9265;;;;
2023/02/05 10:45:05;;;;;;;5.9;2.6;;;;;;;7.3;54.89258;951.9853;;;;
2023/02/05 10:47:31;;;;;;;7.6;2.6;;;;;;;6.5;57.33496;951.9725;;;;
2023/02/05 10:49:56;;;;;;;3.1;1.9;;;;;;;6.79;57.35156;951.8297;;;;
2023/02/05 10:52:22;;;;;;;5.7;2.5;;;;;;;6.94;57.42871;951.7203;;;;
2023/02/05 10:54:51;;;;;;;5.6;2.4;;;;;;;7.03;56.69336;951.7025;;;;
2023/02/05 10:57:15;;;;;;;4;1.9;;;;;;;6.98;52.74609;951.635;;;;
2023/02/05 10:59:44;;;;;;;4.3;2.1;;;;;;;7.11;54.38184;951.5769;;;;
2023/02/05 11:02:08;;;;;;;5.4;2.4;;;;;;;7.45;55.38867;951.4955;;;;
2023/02/05 11:04:33;;;;;;;5.3;2.4;;;;;;;7.61;54.12695;951.4679;;;;
2023/02/05 11:07:00;;;;;;;5.9;2.1;;;;;;;7.56;53.97363;951.5383;;;;
2023/02/05 11:09:24;;;;;;;5.9;2.7;;;;;;;7.92;52.78223;951.361;;;;
2023/02/05 11:11:50;;;;;;;6.2;2;;;;;;;7.61;53.46973;951.4098;;;;
2023/02/05 11:14:15;;;;;;;3.3;1.9;;;;;;;7.74;52.1582;951.3031;;;;
2023/02/05 11:16:44;;;;;;;4.1;2;;;;;;;7.93;52.15918;951.3058;;;;
2023/02/05 11:19:09;;;;;;;5.8;2.3;;;;;;;7.77;52.72949;951.2711;;;;
2023/02/05 11:21:34;;;;;;;5;2.1;;;;;;;8.05;52.04883;951.1926;;;;
2023/02/05 11:24:00;;;;;;;3.8;2;;;;;;;8.04;51.71777;951.3412;;;;
2023/02/05 11:26:28;;;;;;;4;2;;;;;;;8.09;50.44141;951.3187;;;;
2023/02/05 11:28:53;;;;;;;3.8;2;;;;;;;8.11;50.60352;951.3141;;;;
2023/02/05 11:31:24;;;;;;;4.7;1.6;;;;;;;8.08;50.19141;951.3558;;;;
2023/02/05 11:33:49;;;;;;;3.7;1.7;;;;;;;7.9;49.86328;951.3125;;;;
2023/02/05 11:36:15;;;;;;;5.3;2;;;;;;;7.59;51.30273;951.2985;;;;
2023/02/05 11:38:40;;;;;;;4;1.8;;;;;;;7.72;51.3291;951.2566;;;;
2023/02/05 11:41:06;;;;;;;5.5;2;;;;;;;7.79;51.12207;951.2936;;;;
2023/02/05 11:43:31;;;;;;;3.7;1.7;;;;;;;7.67;49.68945;951.3061;;;;
2023/02/05 11:45:56;;;;;;;4.5;1.9;;;;;;;7.55;51.07031;951.3965;;;;
2023/02/05 11:48:21;;;;;;;3.9;1.8;;;;;;;7.57;52.18359;951.4164;;;;
2023/02/05 11:50:46;;;;;;;4.5;1.8;;;;;;;7.61;52.1084;951.4653;;;;
2023/02/05 11:53:11;;;;;;;3.6;1.6;;;;;;;7.75;50.40137;951.4236;;;;
2023/02/05 11:55:36;;;;;;;4.7;1.6;;;;;;;7.76;49.75586;951.3622;;;;
2023/02/05 11:58:02;;;;;;;3.9;1.9;;;;;;;7.74;48.29102;951.3778;;;;
2023/02/05 12:00:27;;;;;;;4.4;1.9;;;;;;;7.6;51.29199;951.4067;;;;
2023/02/05 12:02:52;;;;;;;3.1;1.6;;;;;;;7.5;51.93652;951.4172;;;;
2023/02/05 12:05:17;;;;;;;3.7;1.7;;;;;;;7.5;51.6875;951.3946;;;;
2023/02/05 12:07:43;;;;;;;3.7;1.7;;;;;;;7.51;50.54199;951.4447;;;;
2023/02/05 12:10:09;;;;;;;4.3;2.3;;;;;;;7.23;50.35156;951.427;;;;
2023/02/05 12:12:36;;;;;;;5;1.7;;;;;;;7.36;49.4707;951.4603;;;;
2023/02/05 12:15:01;;;;;;;4.7;2.2;;;;;;;7.28;51.25293;951.4263;;;;
2023/02/05 12:17:33;;;;;;;4.4;1.9;;;;;;;7.15;50.47852;951.3734;;;;
2023/02/05 12:19:58;;;;;;;4.7;1.9;;;;;;;6.86;52.57227;951.4095;;;;
2023/02/05 12:22:23;;;;;;;4.9;2.1;;;;;;;7.07;51.7373;951.4047;;;;
2023/02/05 12:24:48;;;;;;;4.6;1.7;;;;;;;7.04;50.51074;951.307;;;;
2023/02/05 12:27:14;;;;;;;3.6;2.3;;;;;;;6.78;51.4873;951.3644;;;;
2023/02/05 12:29:43;;;;;;;5.8;2.2;;;;;;;6.24;53.97754;951.2975;;;;
2023/02/05 12:32:09;;;;;;;4.5;1.9;;;;;;;6.46;53.15723;951.3392;;;;
2023/02/05 12:34:34;;;;;;;5.4;1.7;;;;;;;6.63;52.61133;951.2737;;;;
2023/02/05 12:37:02;;;;;;;3.2;1.5;;;;;;;6.68;51.83887;951.1964;;;;
2023/02/05 12:39:27;;;;;;;4.3;2;;;;;;;6.81;52.01074;951.1955;;;;
2023/02/05 12:41:52;;;;;;;5.1;1.6;;;;;;;6.89;51.97656;951.1711;;;;
2023/02/05 12:44:19;;;;;;;2.9;1.4;;;;;;;6.94;51.22363;951.1337;;;;
2023/02/05 12:46:46;;;;;;;5;2;;;;;;;6.89;52.24805;951.1591;;;;
2023/02/05 12:49:13;;;;;;;11.1;3.7;;;;;;;7.07;52.40527;951.0961;;;;
2023/02/05 12:51:38;;;;;;;6.8;2.8;;;;;;;7.13;51.03223;951.0923;;;;
2023/02/05 12:54:04;;;;;;;3.6;2.2;;;;;;;7.25;51.18066;951.0825;;;;
2023/02/05 12:56:29;;;;;;;5.9;2.6;;;;;;;7.06;51.18164;951.0598;;;;
2023/02/05 12:58:56;;;;;;;4.9;2.4;;;;;;;7.26;50.87598;951.0408;;;;
2023/02/05 13:01:21;;;;;;;4.3;1.8;;;;;;;7.22;50.72461;951.032;;;;
2023/02/05 13:03:46;;;;;;;7.8;2.7;;;;;;;7.17;50.16406;950.9028;;;;
2023/02/05 13:06:13;;;;;;;5.8;2.6;;;;;;;7.15;50.80664;950.899;;;;
2023/02/05 13:08:41;;;;;;;3.7;1.5;;;;;;;7.15;50.64844;950.9061;;;;
2023/02/05 13:11:04;;;;;;;5;2.1;;;;;;;7.2;50.12207;950.9551;;;;
2023/02/05 13:13:30;;;;;;;4.6;1.8;;;;;;;6.98;51.71582;950.9249;;;;
2023/02/05 13:15:55;;;;;;;6;2;;;;;;;6.9;52.01172;950.8706;;;;
2023/02/05 13:18:20;;;;;;;4.9;1.8;;;;;;;6.94;51.30273;950.8934;;;;
2023/02/05 13:30:32;;;;;;;4;2.1;;;;;;;6.88;51.97461;950.8281;;;;
2023/02/05 13:32:57;;;;;;;3.7;1.7;;;;;;;6.88;53.06152;950.9012;;;;
2023/02/05 13:35:27;;;;;;;5;2.1;;;;;;;6.75;53.72461;950.8329;;;;
2023/02/05 13:37:54;;;;;;;3.9;2;;;;;;;6.55;53.48535;950.7863;;;;
2023/02/05 13:40:19;;;;;;;4.9;2;;;;;;;6.49;53.07031;950.7148;;;;
2023/02/05 13:42:44;;;;;;;6.9;2.3;;;;;;;6.52;53.67383;950.7709;;;;
2023/02/05 13:45:14;;;;;;;3.4;1.8;;;;;;;6.29;54.57129;950.7673;;;;
2023/02/05 13:47:39;;;;;;;6.1;2.1;;;;;;;6.33;54.05566;950.7769;;;;
2023/02/05 13:50:05;;;;;;;4.3;1.8;;;;;;;6.3;53.91797;950.7719;;;;
2023/02/05 13:52:31;;;;;;;4.3;1.7;;;;;;;6.38;54.51563;950.7025;;;;
2023/02/05 13:54:56;;;;;;;9.2;2.3;;;;;;;6.2;55.47559;950.7946;;;;
2023/02/05 13:57:21;;;;;;;4.1;2;;;;;;;6.28;56.15332;950.7599;;;;
2023/02/05 14:00:03;;;;;;;5.6;2;;;;;;;6.41;56.1582;950.6219;;;;
2023/02/05 14:02:29;;;;;;;4.7;2.5;;;;;;;6.47;55.16113;950.7095;;;;
2023/02/05 14:04:55;;;;;;;6;2;;;;;;;6.54;56.51563;950.707;;;;
2023/02/05 14:07:20;;;;;;;6.5;2.1;;;;;;;6.29;57.5332;950.7255;;;;
2023/02/05 14:09:47;;;;;;;3.9;1.8;;;;;;;6.39;55.53418;950.5938;;;;
2023/02/05 14:12:12;;;;;;;4.5;1.9;;;;;;;6.25;57.30273;950.6096;;;;
2023/02/05 14:14:41;;;;;;;6.4;2.3;;;;;;;6.34;58.31934;950.5622;;;;
2023/02/05 14:17:06;;;;;;;4.8;1.8;;;;;;;6.36;56.52539;950.5839;;;;
2023/02/05 14:19:31;;;;;;;5;1.8;;;;;;;6.1;58.55859;950.6445;;;;
2023/02/05 14:21:57;;;;;;;4.6;2.1;;;;;;;5.93;58.88574;950.6512;;;;
2023/02/05 14:24:22;;;;;;;4.1;1.9;;;;;;;5.8;61.57715;950.7268;;;;
2023/02/05 14:26:48;;;;;;;7.6;2.2;;;;;;;5.93;60.10547;950.6733;;;;
2023/02/05 14:29:12;;;;;;;7.1;2.4;;;;;;;5.98;59.66113;950.6797;;;;
2023/02/05 14:31:37;;;;;;;3.7;1.9;;;;;;;5.92;60.29688;950.6573;;;;
2023/02/05 14:34:02;;;;;;;5.9;2.5;;;;;;;5.66;61.6709;950.6884;;;;
2023/02/05 14:36:30;;;;;;;6;2.5;;;;;;;5.68;61.3125;950.6847;;;;
2023/02/05 14:38:55;;;;;;;5.4;2.1;;;;;;;5.49;63;950.7313;;;;
2023/02/05 14:41:23;;;;;;;6.4;2.6;;;;;;;5.24;64.92676;950.734;;;;
2023/02/05 14:43:48;;;;;;;6.6;2.8;;;;;;;4.79;67.21289;950.735;;;;
2023/02/05 14:46:13;;;;;;;7.2;2.8;;;;;;;4.73;67.33789;950.7136;;;;
2023/02/05 14:48:39;;;;;;;7.6;2.9;;;;;;;4.65;68.45215;950.7673;;;;
2023/02/05 14:51:05;;;;;;;6.9;2.8;;;;;;;4.61;68.83984;950.6562;;;;
2023/02/05 14:53:30;;;;;;;7.1;2.7;;;;;;;4.54;68.49023;950.7342;;;;
2023/02/05 14:55:55;;;;;;;6.9;2.6;;;;;;;4.58;68.35059;950.7161;;;;
2023/02/05 14:58:20;;;;;;;5.6;3;;;;;;;4.51;68.96777;950.6522;;;;
2023/02/05 15:00:46;;;;;;;8.5;3.6;;;;;;;4.56;69.75586;950.7119;;;;
2023/02/05 15:03:14;;;;;;;8.9;3.5;;;;;;;4.6;70.13281;950.6979;;;;
2023/02/05 15:05:38;;;;;;;9.2;3.7;;;;;;;4.54;70.86523;950.679;;;;
2023/02/05 15:08:06;;;;;;;6.7;2.6;;;;;;;4.27;72.14844;950.6671;;;;
2023/02/05 15:10:32;;;;;;;7.1;3.1;;;;;;;4.07;73.37305;950.6922;;;;
2023/02/05 15:12:59;;;;;;;5.5;2.9;;;;;;;4.11;73.33691;950.7307;;;;
2023/02/05 15:15:30;;;;;;;8.3;3.2;;;;;;;4.2;73.89258;950.7184;;;;
2023/02/05 15:17:52;;;;;;;8.6;4;;;;;;;4.3;73.45801;950.7378;;;;
2023/02/05 15:20:21;;;;;;;8.2;3.5;;;;;;;4.34;73.21875;950.6809;;;;
2023/02/05 15:22:46;;;;;;;9.1;3.4;;;;;;;4.31;73.22559;950.6424;;;;
2023/02/05 15:25:15;;;;;;;8.5;4.1;;;;;;;4.4;73.2168;950.7037;;;;
2023/02/05 15:27:40;;;;;;;7.5;4;;;;;;;4.34;73.35352;950.685;;;;
2023/02/05 15:30:05;;;;;;;9.3;4.3;;;;;;;4.35;73.66016;950.6897;;;;
2023/02/05 15:32:30;;;;;;;9.6;4.1;;;;;;;4.41;73.625;950.6904;;;;
2023/02/05 15:34:56;;;;;;;9.6;4.2;;;;;;;4.22;74.64941;950.6805;;;;
2023/02/05 15:37:21;;;;;;;8.9;4.5;;;;;;;4.15;75.67188;950.7148;;;;
2023/02/05 15:39:46;;;;;;;8.7;4.5;;;;;;;4.26;75.41113;950.6227;;;;
2023/02/05 15:42:11;;;;;;;10;4.2;;;;;;;4.27;75.43359;950.6002;;;;
2023/02/05 15:44:36;;;;;;;9;4.1;;;;;;;4.36;75.2041;950.6066;;;;
2023/02/05 15:47:04;;;;;;;8.5;3.6;;;;;;;4.43;75.18164;950.5826;;;;
2023/02/05 15:49:29;;;;;;;11.3;3.6;;;;;;;4.41;75.36914;950.5942;;;;
2023/02/05 15:51:54;;;;;;;8.7;3.8;;;;;;;4.36;74.96582;950.6016;;;;
2023/02/05 15:54:26;;;;;;;7;3.8;;;;;;;4.31;75.42871;950.606;;;;
2023/02/05 15:56:56;;;;;;;12.5;4.1;;;;;;;4.23;76.37402;950.588;;;;
2023/02/05 15:59:21;;;;;;;7.8;4.8;;;;;;;4.01;77.69434;950.6577;;;;
2023/02/05 16:01:47;;;;;;;9.8;5.3;;;;;;;3.8;78.72461;950.6836;;;;
2023/02/05 16:04:17;;;;;;;14.1;5.4;;;;;;;3.88;78.9082;950.7252;;;;
2023/02/05 16:06:42;;;;;;;12.1;5.4;;;;;;;3.95;78.99902;950.8265;;;;
2023/02/05 16:09:07;;;;;;;9.9;4.9;;;;;;;3.96;79.15723;950.8542;;;;
2023/02/05 16:11:39;;;;;;;9.5;4.7;;;;;;;4.04;78.90332;950.8917;;;;
2023/02/05 16:14:02;;;;;;;11.3;5.7;;;;;;;4.06;78.69238;950.8544;;;;
2023/02/05 16:16:27;;;;;;;12.4;5.3;;;;;;;3.96;78.87695;950.8914;;;;
2023/02/05 16:18:58;;;;;;;10.9;5.5;;;;;;;4.03;78.92383;950.7823;;;;